Forlì Airport

LIPK · Emilia-Romagna, 意大利

罗盘
风向 的 Forlì Airport 12/30
风: 3 kt, 1 beaufort

1 kt

3 kt
改变
0 ft 1.000 2.000 3.000 4.000 5.000
Cloud Cloud Cloud Cloud Cloud Cloud
BKN 5.000
METAR LIPK 011850Z VRB03KT 9999 BKN050 11/08 Q1005

METAR Forlì Airport - LIPK/FRL

Forlì Airport是,意大利中的中型机场。 该机场位于纬度44,19524和经度12,06970。 该机场有一条跑道: 12/30. 本场的ICAO机场代码为LIPK。 该机场的IATA代码为FRL。 机场在Milano FIR中。

该航空气象观测是针对Forlì Airport在2024年3月1日 19:50, 当地时间进行的。

机场观察

可变方向的风很小或没有风。

可见度为10 km 或者更多。

有碎云在5.000 ft的高度。 破损或更高的上限为5.000 ft。

温度和风寒是11 °C。 露点为8 °C,相对湿度为82%。 海平面上的气压为1005 hPa (QNH)。

白天

今天,太阳从06:47升起,在18:00降落。 这适用于Forlì Airport,世界夏令时可能有所不同。 当地时间与世界标准时间之间的时差为+1 小时。 当前,没有夏令时有效。

公司介绍

在这个机场,你可以找到飞行学校。 本场上唯一已知的公司是Aernova。

体会

到Vliegles.nl去找飞行课程,跳伞和其他飞行体验。 浏览页面,了解Forlì Airport附近所有可用的活动。 你也可以使用搜索功能来寻找你所在地附近的特定飞行课程、跳伞或其他飞行体验。

跑道

Id 标题 侧风 逆风 侧风 %
12/30 117°-297° 3 kt 1 kt 89 %

逆风成分最大的方向会被突出显示,并用于横风计算。 这并不一定意味着这个方向在使用。

乌云

5.000 ft BKN 碎云

温度 & 天气

温度 11 °C
露点 8 °C
相对湿度 82%
Kp-index 1 (0-9)

白天

日出
06:47 (8:50)
中午
12:23
日落
18:00

小工具

你想在你的网站上有一个关于Forlì Airport的当前航空天气(METAR)的小部件吗?

显示HTML代码
?>